»·PEaware :: N1LB KAVQ-KBXK

N1LB :: KAVQ-KBXK

FLIGHT INFORMATION

Flight Status: Arrived
Operator: Privately registered:
United States
More flights under this callsign
Pilot: Luke B. (23846)
Aircraft: CESSNA 172 SKYHAWK
(C172)
More flights by this aircraft type
Origin: KAVQ Marana Northwest Regl
United States
Destination: KBXK Buckeye Mun
United States
More flights between these airports :: More routes between these airports
Route:
File this flight plan on PilotEdge
Remarks:
Altitude:
(Current/Filed)
6,500ft
Speed:
(Current/Filed)
110kts
Departed: 23-Sep-20 02:16 PM
Arrived: 23-Sep-20 03:12 PM
Distance/Time
Traveled:
96nm/0:56
Distance/Time
To Go:
Arrived

Flight Plot

Page will automatically refresh every two minutes.

Flight plan parsing failed; only flown route is shown


Map Options




Map Legend


Flown Route
Filed Route
Departure Airport
Arrival Airport
Navaid (VOR, NDB)
Fix

Horizontal Profiles

Position Reports

Time Latitude Longitude Heading Altitude Ground
Speed
23-Sep-20 13:55 32.406206 -111.215522 335 2028ft 0kts
23-Sep-20 13:56 32.406206 -111.215522 335 2028ft 0kts
23-Sep-20 13:57 32.406206 -111.215522 335 2028ft 0kts
23-Sep-20 13:58 32.406206 -111.215522 335 2028ft 0kts
23-Sep-20 13:59 32.406206 -111.215522 335 2028ft 0kts
23-Sep-20 14:00 32.406206 -111.215522 335 2028ft 0kts
23-Sep-20 14:01 32.406206 -111.215522 335 2028ft 0kts
23-Sep-20 14:02 32.406206 -111.215522 335 2028ft 0kts
23-Sep-20 14:03 32.406206 -111.215522 335 2028ft 0kts
23-Sep-20 14:04 32.406206 -111.215522 335 2028ft 0kts
23-Sep-20 14:05 32.406206 -111.215522 335 2028ft 0kts
23-Sep-20 14:06 32.406206 -111.215522 335 2028ft 0kts
23-Sep-20 14:07 32.406206 -111.215522 335 2028ft 0kts
23-Sep-20 14:08 32.406206 -111.215522 335 2028ft 0kts
23-Sep-20 14:09 32.406206 -111.215522 335 2028ft 0kts
23-Sep-20 14:10 32.406206 -111.215522 335 2028ft 0kts
23-Sep-20 14:11 32.405893 -111.214372 138 2030ft 15kts
23-Sep-20 14:12 32.403695 -111.211273 46 2034ft 0kts
23-Sep-20 14:13 32.403695 -111.211273 46 2034ft 0kts
23-Sep-20 14:14 32.404029 -111.210876 42 2034ft 9kts
23-Sep-20 14:15 32.409336 -111.216552 315 2040ft 73kts
23-Sep-20 14:16 32.425032 -111.233308 317 2367ft 84kts
23-Sep-20 14:17 32.440562 -111.251186 324 2820ft 75kts
23-Sep-20 14:18 32.454202 -111.270365 299 3181ft 78kts
23-Sep-20 14:19 32.462092 -111.293858 270 3550ft 77kts
23-Sep-20 14:20 32.475305 -111.312434 312 3812ft 79kts
23-Sep-20 14:21 32.488216 -111.330989 313 4144ft 70kts
23-Sep-20 14:22 32.501208 -111.347561 306 4355ft 69kts
23-Sep-20 14:23 32.515227 -111.369774 310 4439ft 106kts
23-Sep-20 14:24 32.536251 -111.399576 310 4440ft 123kts
23-Sep-20 14:25 32.558341 -111.431021 310 4440ft 124kts
23-Sep-20 14:26 32.580490 -111.462636 309 4439ft 121kts
23-Sep-20 14:27 32.601800 -111.493110 310 4438ft 118kts
23-Sep-20 14:28 32.622858 -111.523239 309 4437ft 118kts
23-Sep-20 14:29 32.643871 -111.553339 309 4437ft 118kts
23-Sep-20 14:30 32.664892 -111.583470 309 4433ft 118kts
23-Sep-20 14:31 32.685861 -111.613549 309 4433ft 118kts
23-Sep-20 14:32 32.706767 -111.643559 309 4433ft 117kts
23-Sep-20 14:33 32.727640 -111.673558 309 4430ft 117kts
23-Sep-20 14:34 32.748448 -111.703480 309 4428ft 117kts
23-Sep-20 14:35 32.768697 -111.732626 309 4428ft 114kts
23-Sep-20 14:37 32.788820 -111.761603 309 4423ft 113kts
23-Sep-20 14:38 32.808828 -111.790441 309 4421ft 113kts
23-Sep-20 14:39 32.828853 -111.819333 309 4422ft 113kts
23-Sep-20 14:40 32.848972 -111.848379 309 4420ft 113kts
23-Sep-20 14:41 32.868970 -111.877275 309 4419ft 113kts
23-Sep-20 14:42 32.888921 -111.906122 309 4417ft 112kts
23-Sep-20 14:43 32.908886 -111.935012 309 4416ft 112kts
23-Sep-20 14:44 32.928775 -111.963819 308 4415ft 113kts
23-Sep-20 14:45 32.949120 -111.993305 309 4413ft 116kts
23-Sep-20 14:46 32.969640 -112.023068 308 4412ft 116kts
23-Sep-20 14:47 32.990165 -112.052872 308 4409ft 116kts
23-Sep-20 14:48 33.010602 -112.082560 308 4408ft 116kts
23-Sep-20 14:49 33.031067 -112.112312 308 4405ft 115kts
23-Sep-20 14:50 33.051498 -112.142050 308 4404ft 116kts
23-Sep-20 14:51 33.071820 -112.171650 308 4402ft 115kts
23-Sep-20 14:52 33.092194 -112.201346 308 4399ft 115kts
23-Sep-20 14:52 33.109112 -112.226020 308 4400ft 115kts
23-Sep-20 14:54 33.132950 -112.260824 308 4398ft 116kts
23-Sep-20 14:55 33.153357 -112.290645 308 4397ft 115kts
23-Sep-20 14:55 33.170353 -112.315493 308 4395ft 116kts
23-Sep-20 14:56 33.190827 -112.345454 308 4394ft 116kts
23-Sep-20 14:57 33.211206 -112.375299 308 4391ft 115kts
23-Sep-20 14:58 33.231589 -112.405175 308 4389ft 116kts
23-Sep-20 14:59 33.251969 -112.435077 308 4389ft 116kts
23-Sep-20 15:00 33.272142 -112.464687 307 4393ft 114kts
23-Sep-20 15:01 33.292334 -112.494355 307 4387ft 115kts
23-Sep-20 15:02 33.312544 -112.524075 308 4390ft 115kts
23-Sep-20 15:03 33.332776 -112.553845 308 4392ft 115kts
23-Sep-20 15:04 33.352746 -112.583182 308 4289ft 111kts
23-Sep-20 15:05 33.373214 -112.611493 302 3951ft 109kts
23-Sep-20 15:06 33.387830 -112.644116 294 2983ft 109kts
23-Sep-20 15:07 33.403718 -112.666860 349 2397ft 86kts
23-Sep-20 15:08 33.425719 -112.670581 350 2190ft 79kts
23-Sep-20 15:09 33.447259 -112.674465 358 2011ft 76kts
23-Sep-20 15:10 33.438839 -112.685641 181 1447ft 76kts
23-Sep-20 15:11 33.423927 -112.686169 152 1023ft 15kts
23-Sep-20 15:12 33.424449 -112.685117 60 1023ft 5kts
23-Sep-20 15:13 33.420855 -112.684679 95 1013ft 10kts
23-Sep-20 15:14 33.421431 -112.684172 269 1014ft 0kts
23-Sep-20 15:15 33.421431 -112.684172 269 1014ft 0kts
23-Sep-20 15:16 33.421431 -112.684172 269 1014ft 0kts
23-Sep-20 15:17 33.421451 -112.684183 51 1014ft 0kts
23-Sep-20 15:18 33.421452 -112.684174 89 1014ft 0kts
23-Sep-20 15:19 33.421452 -112.684174 89 1014ft 0kts
23-Sep-20 15:20 33.421452 -112.684174 89 1014ft 0kts
23-Sep-20 15:21 33.421452 -112.684174 89 1014ft 0kts
23-Sep-20 15:22 33.421452 -112.684174 89 1014ft 0kts
23-Sep-20 15:23 33.421452 -112.684174 89 1014ft 0kts

Navigation Log

Ident Type
Flight plan parsing failed, navigation log unavailable